Time;durP1;ratioP1;P1;durP2;ratioP2;P2;SDS_P1;SDS_P2;PMS_P1;PMS_P2;Temp;Humidity;BMP_temperature;BMP_pressure;BME280_temperature;BME280_humidity;BME280_pressure;Samples;Min_cycle;Max_cycle;Signal;HPM_P1;HPM_P2
2023/04/13 00:00:41;;;;;;;1.38;0.77;;;;;;;2.66;100.00;91906.78;2070647;28;20030;-88
2023/04/13 00:01:44;;;;;;;3.55;1.20;;;;;;;2.70;100.00;91912.03;2073735;28;20032;-88
2023/04/13 00:02:52;;;;;;;1.42;0.80;;;;;;;2.70;100.00;91906.75;2073808;28;20057;-89
2023/04/13 00:03:56;;;;;;;0.60;0.60;;;;;;;2.77;100.00;91906.66;2082757;28;20478;-88
2023/04/13 00:04:59;;;;;;;1.13;0.90;;;;;;;2.74;100.00;91908.19;2070041;28;20120;-89
2023/04/13 00:06:01;;;;;;;1.15;0.80;;;;;;;2.74;100.00;91897.66;2077776;28;20100;-88
2023/04/13 00:07:03;;;;;;;1.88;1.02;;;;;;;2.75;100.00;91901.03;2074254;28;20018;-87
2023/04/13 00:08:05;;;;;;;2.10;0.90;;;;;;;2.78;100.00;91905.53;2089585;28;20025;-88
2023/04/13 00:09:08;;;;;;;4.88;0.93;;;;;;;3.00;100.00;91914.66;2081690;28;20037;-89
2023/04/13 00:10:09;;;;;;;3.85;1.00;;;;;;;3.09;100.00;91906.25;2073647;28;20021;-89
2023/04/13 00:11:13;;;;;;;3.63;1.00;;;;;;;3.09;100.00;91911.53;2086316;28;20416;-88
2023/04/13 00:12:14;;;;;;;4.65;0.88;;;;;;;2.96;100.00;91906.03;2081136;28;20029;-88
2023/04/13 00:13:17;;;;;;;2.88;0.95;;;;;;;3.01;100.00;91910.13;2075700;28;20429;-88
2023/04/13 00:14:18;;;;;;;1.30;0.90;;;;;;;2.94;100.00;91912.84;2098005;28;20111;-88
2023/04/13 00:15:19;;;;;;;1.20;0.80;;;;;;;3.06;100.00;91901.00;2089400;28;20024;-89
2023/04/13 00:16:23;;;;;;;3.78;0.95;;;;;;;3.16;100.00;91906.16;2089750;28;20108;-88
2023/04/13 00:17:27;;;;;;;2.72;0.73;;;;;;;3.00;100.00;91898.06;2082096;28;20032;-89
2023/04/13 00:18:28;;;;;;;5.65;1.02;;;;;;;2.92;100.00;91913.25;2086437;28;20468;-88
2023/04/13 00:19:30;;;;;;;8.18;1.17;;;;;;;2.81;100.00;91901.31;2085901;28;20022;-88
2023/04/13 00:20:40;;;;;;;1.23;0.93;;;;;;;2.76;100.00;91897.25;2074426;28;20256;-89
2023/04/13 00:21:41;;;;;;;2.08;0.90;;;;;;;2.81;100.00;91902.09;2082021;28;20080;-88
2023/04/13 00:22:46;;;;;;;7.00;1.50;;;;;;;2.75;100.00;91901.03;2077670;28;20033;-87
2023/04/13 00:23:47;;;;;;;9.73;1.38;;;;;;;2.74;100.00;91899.53;2073235;28;20456;-87
2023/04/13 00:24:48;;;;;;;5.63;1.08;;;;;;;2.70;100.00;91894.31;2073244;28;20028;-89
2023/04/13 00:25:52;;;;;;;4.20;1.00;;;;;;;2.86;100.00;91904.28;2073680;28;20039;-90
2023/04/13 00:26:55;;;;;;;4.03;1.02;;;;;;;2.93;100.00;91898.16;2082621;28;20033;-90
2023/04/13 00:28:00;;;;;;;2.17;1.05;;;;;;;2.85;100.00;91892.22;2085312;28;20022;-89
2023/04/13 00:29:01;;;;;;;4.88;1.10;;;;;;;2.85;100.00;91896.75;2082281;28;20030;-88
2023/04/13 00:30:02;;;;;;;4.35;1.10;;;;;;;2.80;100.00;91899.84;2075016;28;20026;-89
2023/04/13 00:31:04;;;;;;;3.50;1.00;;;;;;;2.79;100.00;91899.09;2085303;28;20024;-90
2023/04/13 00:32:05;;;;;;;3.17;1.30;;;;;;;2.72;100.00;91899.94;2077767;28;20021;-88
2023/04/13 00:33:06;;;;;;;4.20;1.00;;;;;;;2.73;100.00;91901.44;2072755;28;20072;-89
2023/04/13 00:34:10;;;;;;;8.23;1.30;;;;;;;2.73;100.00;91896.16;2081560;28;20504;-88
2023/04/13 00:35:17;;;;;;;1.83;1.08;;;;;;;2.66;100.00;91895.50;2082057;28;20120;-89
2023/04/13 00:36:23;;;;;;;1.58;1.13;;;;;;;2.58;100.00;91894.06;2072258;28;20030;-87
2023/04/13 00:37:28;;;;;;;2.40;0.75;;;;;;;2.75;100.00;91898.38;2077882;28;20064;-88
2023/04/13 00:38:43;;;;;;;1.92;1.10;;;;;;;2.80;100.00;91894.56;2077421;28;20512;-89
2023/04/13 00:39:47;;;;;;;4.07;0.98;;;;;;;3.00;100.00;91898.06;2076632;28;20536;-89
2023/04/13 00:40:50;;;;;;;4.13;1.02;;;;;;;2.80;100.00;91897.94;2074235;28;20057;-89
2023/04/13 00:41:51;;;;;;;3.13;1.10;;;;;;;2.71;100.00;91908.22;2074250;28;20036;-87
2023/04/13 00:42:53;;;;;;;8.73;1.35;;;;;;;2.68;100.00;91907.16;2077994;28;20492;-88
2023/04/13 00:43:57;;;;;;;2.22;0.80;;;;;;;2.78;100.00;91908.16;2073367;28;20120;-88
2023/04/13 00:44:58;;;;;;;1.60;0.90;;;;;;;2.77;100.00;91912.69;2073118;28;20113;-88
2023/04/13 00:46:02;;;;;;;2.47;1.05;;;;;;;2.68;100.00;91919.59;2065122;28;20022;-88
2023/04/13 00:47:08;;;;;;;2.30;0.82;;;;;;;2.72;100.00;91920.28;2074172;28;20571;-88
2023/04/13 00:48:13;;;;;;;1.48;0.98;;;;;;;2.69;100.00;91919.19;2079730;28;20026;-88
2023/04/13 00:49:17;;;;;;;1.95;1.42;;;;;;;2.62;100.00;91915.88;2081890;28;20033;-88
2023/04/13 00:50:21;;;;;;;5.55;1.08;;;;;;;2.60;100.00;91916.28;2085990;28;20492;-88
2023/04/13 00:51:22;;;;;;;2.50;1.08;;;;;;;2.64;100.00;91913.63;2085712;28;20079;-88
2023/04/13 00:52:23;;;;;;;2.63;0.80;;;;;;;2.64;100.00;91914.34;2095125;28;20108;-88
2023/04/13 00:53:24;;;;;;;2.55;1.17;;;;;;;2.71;100.00;91921.44;2087645;28;20029;-87
2023/04/13 00:54:26;;;;;;;2.72;1.10;;;;;;;2.62;100.00;91918.53;2082822;28;20404;-89
2023/04/13 00:55:27;;;;;;;2.83;0.90;;;;;;;2.58;100.00;91907.25;2077358;28;20543;-88
2023/04/13 00:56:29;;;;;;;1.90;0.98;;;;;;;2.93;100.00;91921.91;2081763;28;20037;-88
2023/04/13 00:57:34;;;;;;;3.15;1.10;;;;;;;2.88;100.00;91917.09;2081594;28;20033;-90
2023/04/13 00:58:36;;;;;;;4.18;0.88;;;;;;;2.69;100.00;91910.53;2074232;28;20026;-89
2023/04/13 00:59:40;;;;;;;4.43;1.15;;;;;;;2.55;100.00;91910.69;2081811;28;20025;-89
2023/04/13 01:00:59;;;;;;;3.67;1.20;;;;;;;2.61;100.00;91917.03;2081848;28;20021;-89
2023/04/13 01:02:06;;;;;;;3.35;0.95;;;;;;;2.66;100.00;91916.59;2083474;28;20076;-87
2023/04/13 01:03:12;;;;;;;1.65;1.05;;;;;;;2.60;100.00;91916.28;2087647;28;20039;-88
2023/04/13 01:04:18;;;;;;;1.35;1.00;;;;;;;2.52;100.00;91906.94;2083451;28;20029;-89
2023/04/13 01:06:00;;;;;;;4.20;1.20;;;;;;;2.53;100.00;91914.47;2087953;28;20492;-85
2023/04/13 01:07:40;;;;;;;6.55;1.35;;;;;;;2.73;100.00;91911.25;2082000;28;20031;-86
2023/04/13 01:08:52;;;;;;;2.10;1.00;;;;;;;2.59;100.00;91906.88;2092067;28;20043;-88
2023/04/13 01:10:27;;;;;;;6.60;1.10;;;;;;;2.57;100.00;91906.50;2086185;28;20021;-88
2023/04/13 01:11:38;;;;;;;8.63;1.27;;;;;;;2.57;100.00;91917.06;2086203;28;20020;-89
2023/04/13 01:12:55;;;;;;;2.17;1.00;;;;;;;2.45;100.00;91907.03;2075072;28;20719;-88
2023/04/13 01:14:30;;;;;;;2.92;1.10;;;;;;;2.47;100.00;91910.03;2079785;28;20034;-89
2023/04/13 01:15:37;;;;;;;3.20;1.10;;;;;;;2.45;100.00;91918.31;2082517;28;20063;-89
2023/04/13 01:16:47;;;;;;;1.92;0.95;;;;;;;2.58;100.00;91908.00;2081290;28;20025;-88
2023/04/13 01:17:55;;;;;;;5.60;1.35;;;;;;;2.54;100.00;91904.66;2067818;28;20034;-89
2023/04/13 01:18:56;;;;;;;1.90;0.88;;;;;;;2.49;100.00;91910.38;2075048;28;20474;-89
2023/04/13 01:20:11;;;;;;;2.67;1.40;;;;;;;2.47;100.00;91910.78;2077259;28;20049;-90
2023/04/13 01:21:14;;;;;;;9.35;1.48;;;;;;;2.46;100.00;91913.81;2074099;28;20461;-88
2023/04/13 01:22:18;;;;;;;7.30;1.40;;;;;;;2.68;100.00;91915.06;2085783;28;20059;-89
2023/04/13 01:23:57;;;;;;;4.35;1.13;;;;;;;2.60;100.00;91908.38;2093693;28;20055;-88
2023/04/13 01:25:46;;;;;;;5.40;1.33;;;;;;;2.45;100.00;91915.69;2084689;28;20029;-88
2023/04/13 01:27:08;;;;;;;4.03;1.40;;;;;;;2.49;100.00;91911.13;2081497;28;20416;-87
2023/04/13 01:28:14;;;;;;;2.60;0.90;;;;;;;2.50;100.00;91910.00;2082087;28;20040;-88
2023/04/13 01:29:17;;;;;;;3.15;1.00;;;;;;;2.59;100.00;91909.53;2068821;28;20069;-88
2023/04/13 01:30:22;;;;;;;5.22;1.10;;;;;;;2.53;100.00;91901.28;2071357;28;20022;-88
2023/04/13 01:31:23;;;;;;;5.88;1.00;;;;;;;2.66;100.00;91906.03;2094994;28;20096;-87
2023/04/13 01:32:26;;;;;;;4.07;1.25;;;;;;;2.69;100.00;91899.97;2095116;28;20002;-88
2023/04/13 01:33:29;;;;;;;3.33;1.00;;;;;;;2.68;100.00;91904.50;2086638;28;20020;-88
2023/04/13 01:34:32;;;;;;;3.50;1.05;;;;;;;2.85;100.00;91902.78;2073834;28;20029;-89
2023/04/13 01:35:37;;;;;;;1.55;1.00;;;;;;;2.90;100.00;91896.34;2085483;28;20022;-89
2023/04/13 01:36:39;;;;;;;4.85;1.00;;;;;;;2.74;100.00;91899.53;2082020;28;20028;-88
2023/04/13 01:37:42;;;;;;;5.90;1.38;;;;;;;2.61;100.00;91894.03;2064949;28;20369;-88
2023/04/13 01:38:47;;;;;;;7.20;1.40;;;;;;;2.53;100.00;91889.97;2073918;28;20425;-90
2023/04/13 01:39:48;;;;;;;9.32;1.88;;;;;;;2.57;100.00;91889.94;2085871;28;20531;-88
2023/04/13 01:40:50;;;;;;;4.45;1.10;;;;;;;2.43;100.00;91891.59;2078091;28;21115;-88
2023/04/13 01:41:51;;;;;;;2.25;1.45;;;;;;;2.41;100.00;91891.25;2079877;28;20076;-89
2023/04/13 01:42:52;;;;;;;8.18;1.40;;;;;;;2.34;100.00;91882.69;2069433;28;20479;-88
2023/04/13 01:43:54;;;;;;;2.90;1.38;;;;;;;2.31;100.00;91886.84;2076571;28;20026;-87
2023/04/13 01:44:55;;;;;;;3.03;1.10;;;;;;;2.35;100.00;91882.28;2084388;28;20028;-88
2023/04/13 01:46:03;;;;;;;6.53;1.40;;;;;;;2.31;100.00;91881.56;2089730;28;20033;-89
2023/04/13 01:47:14;;;;;;;4.05;1.17;;;;;;;2.25;100.00;91873.34;2082878;28;20029;-90
2023/04/13 01:48:28;;;;;;;5.85;1.10;;;;;;;2.26;100.00;91874.09;2078552;28;20089;-88
2023/04/13 01:49:36;;;;;;;7.75;1.13;;;;;;;2.22;100.00;91870.75;2075809;28;20480;-87
2023/04/13 01:50:45;;;;;;;6.90;1.45;;;;;;;2.42;100.00;91871.66;2078426;28;20072;-89
2023/04/13 01:51:53;;;;;;;3.42;1.30;;;;;;;2.52;100.00;91875.31;2074531;28;20486;-88
2023/04/13 01:53:10;;;;;;;5.18;1.27;;;;;;;2.36;100.00;91883.75;2078090;28;20502;-88
2023/04/13 01:54:38;;;;;;;2.60;1.20;;;;;;;2.25;100.00;91880.50;2075193;28;20446;-88
2023/04/13 01:55:52;;;;;;;7.78;1.20;;;;;;;2.18;100.00;91875.31;2076761;28;20488;-88
2023/04/13 01:57:05;;;;;;;6.80;1.30;;;;;;;2.33;100.00;91881.94;2090940;28;20032;-88
2023/04/13 01:58:09;;;;;;;5.82;0.90;;;;;;;2.15;100.00;91876.09;2080370;28;20087;-88
2023/04/13 01:59:23;;;;;;;6.68;1.15;;;;;;;2.11;100.00;91878.78;2074549;28;20022;-89
2023/04/13 02:00:36;;;;;;;4.55;1.30;;;;;;;2.29;100.00;91873.31;2077458;28;20026;-88
2023/04/13 02:01:43;;;;;;;2.72;1.00;;;;;;;2.22;100.00;91874.13;2087490;28;20104;-88
2023/04/13 02:02:48;;;;;;;5.47;1.10;;;;;;;2.05;100.00;91875.06;2069647;28;20073;-89
2023/04/13 02:04:00;;;;;;;7.85;1.10;;;;;;;2.18;100.00;91877.94;2065873;28;20072;-89
2023/04/13 02:05:26;;;;;;;3.20;0.93;;;;;;;2.10;100.00;91879.16;2075463;28;20461;-88
2023/04/13 02:06:29;;;;;;;3.63;1.40;;;;;;;2.00;100.00;91876.22;2083891;28;20123;-88
2023/04/13 02:07:31;;;;;;;2.75;1.00;;;;;;;2.04;100.00;91868.28;2089016;28;20028;-89
2023/04/13 02:08:37;;;;;;;6.32;0.90;;;;;;;1.97;100.00;91874.38;2088697;28;20027;-90
2023/04/13 02:09:41;;;;;;;8.50;1.15;;;;;;;1.92;100.00;91868.78;2080356;28;20061;-88
2023/04/13 02:10:48;;;;;;;3.83;1.15;;;;;;;1.98;100.00;91870.63;2080617;28;20033;-88
2023/04/13 02:11:49;;;;;;;3.47;0.98;;;;;;;1.97;100.00;91877.00;2075697;28;20422;-88
2023/04/13 02:12:53;;;;;;;7.65;1.40;;;;;;;2.07;100.00;91872.03;2077323;28;20056;-88
2023/04/13 02:13:56;;;;;;;5.60;1.52;;;;;;;2.05;100.00;91879.59;2072041;28;20056;-89
2023/04/13 02:14:58;;;;;;;7.75;1.20;;;;;;;1.97;100.00;91876.25;2087465;28;20051;-87
2023/04/13 02:16:08;;;;;;;10.38;1.50;;;;;;;1.86;100.00;91884.28;2099042;28;20028;-89
2023/04/13 02:17:11;;;;;;;6.18;1.80;;;;;;;1.82;100.00;91885.44;2090132;28;20017;-88
2023/04/13 02:18:14;;;;;;;2.85;0.95;;;;;;;1.81;100.00;91891.88;2081349;28;20025;-88
2023/04/13 02:19:20;;;;;;;5.97;1.13;;;;;;;1.86;100.00;91886.16;2085668;28;20107;-89
2023/04/13 02:20:22;;;;;;;7.80;1.30;;;;;;;1.90;100.00;91885.00;2089833;28;20090;-89
2023/04/13 02:21:27;;;;;;;6.93;1.10;;;;;;;1.90;100.00;91887.63;2095403;28;20563;-89
2023/04/13 02:22:31;;;;;;;8.95;1.55;;;;;;;2.21;100.00;91893.72;2080021;28;20030;-88
2023/04/13 02:23:33;;;;;;;3.88;1.20;;;;;;;2.26;100.00;91895.19;2069427;28;20514;-89
2023/04/13 02:24:34;;;;;;;9.73;1.30;;;;;;;2.29;100.00;91902.31;2076595;28;20042;-90
2023/04/13 02:25:45;;;;;;;3.47;1.23;;;;;;;2.19;100.00;91900.53;2073434;28;20029;-87
2023/04/13 02:26:46;;;;;;;5.15;1.02;;;;;;;2.04;100.00;91899.91;2081082;28;20017;-89
2023/04/13 02:27:47;;;;;;;3.50;0.93;;;;;;;2.00;100.00;91912.38;2080313;28;20467;-89
2023/04/13 02:28:50;;;;;;;5.30;1.83;;;;;;;1.95;100.00;91913.56;2068271;28;20038;-89
2023/04/13 02:29:51;;;;;;;2.33;1.45;;;;;;;2.07;100.00;91914.22;2072814;28;20022;-88
2023/04/13 02:30:58;;;;;;;5.03;1.30;;;;;;;1.84;100.00;91907.63;2080381;28;20071;-88
2023/04/13 02:32:00;;;;;;;6.97;1.42;;;;;;;1.73;100.00;91906.97;2081002;28;20036;-88
2023/04/13 02:33:01;;;;;;;4.35;1.13;;;;;;;1.64;100.00;91904.78;2071992;28;20466;-89
2023/04/13 02:34:03;;;;;;;7.30;1.60;;;;;;;1.83;100.00;91908.03;2076876;28;20095;-89
2023/04/13 02:35:08;;;;;;;8.85;1.30;;;;;;;1.77;100.00;91902.44;2068065;28;20022;-88
2023/04/13 02:36:10;;;;;;;2.95;1.23;;;;;;;1.73;100.00;91901.72;2074902;28;20025;-88
2023/04/13 02:37:11;;;;;;;3.63;1.27;;;;;;;1.69;100.00;91901.00;2078779;28;20025;-90
2023/04/13 02:38:12;;;;;;;4.60;1.38;;;;;;;1.74;100.00;91909.22;2069743;28;20033;-89
2023/04/13 02:39:17;;;;;;;5.18;1.23;;;;;;;1.86;100.00;91900.09;2088146;28;20039;-88
2023/04/13 02:40:18;;;;;;;7.78;1.70;;;;;;;1.82;100.00;91909.91;2082178;28;20025;-88
2023/04/13 02:41:21;;;;;;;5.18;1.30;;;;;;;1.71;100.00;91901.34;2073598;28;20096;-89
2023/04/13 02:42:23;;;;;;;7.45;1.35;;;;;;;1.69;100.00;91898.34;2081591;28;20136;-88
2023/04/13 02:43:27;;;;;;;3.65;1.40;;;;;;;1.73;100.00;91904.34;2078480;28;20113;-87
2023/04/13 02:44:29;;;;;;;5.15;1.30;;;;;;;1.57;100.00;91904.09;2069926;28;20033;-90
2023/04/13 02:45:30;;;;;;;3.33;1.20;;;;;;;1.77;100.00;91903.19;2068329;28;20112;-89
2023/04/13 02:46:34;;;;;;;4.63;1.60;;;;;;;1.63;100.00;91897.28;2072965;28;20022;-88
2023/04/13 02:47:39;;;;;;;4.57;1.30;;;;;;;1.85;100.00;91908.41;2065563;28;20037;-88
2023/04/13 02:48:43;;;;;;;5.28;1.27;;;;;;;1.60;100.00;91900.69;2067663;28;20034;-89
2023/04/13 02:49:45;;;;;;;6.80;1.33;;;;;;;1.54;100.00;91904.84;2073981;28;20097;-88
2023/04/13 02:50:47;;;;;;;4.15;1.17;;;;;;;1.42;100.00;91904.22;2073500;28;20124;-88
2023/04/13 02:51:48;;;;;;;7.50;1.50;;;;;;;1.44;100.00;91896.66;2084802;28;20030;-87
2023/04/13 02:52:49;;;;;;;4.47;1.35;;;;;;;1.41;100.00;91904.59;2090472;28;20017;-88
2023/04/13 02:53:51;;;;;;;7.07;1.52;;;;;;;1.33;100.00;91905.78;2084849;28;20026;-88
2023/04/13 02:54:55;;;;;;;6.95;1.40;;;;;;;1.25;100.00;91900.56;2081244;28;20033;-90
2023/04/13 02:55:56;;;;;;;3.90;1.20;;;;;;;1.23;100.00;91907.34;2073457;28;20030;-89
2023/04/13 02:57:00;;;;;;;4.25;1.35;;;;;;;1.18;100.00;91910.38;2087887;28;20029;-88
2023/04/13 02:58:03;;;;;;;7.57;2.08;;;;;;;1.17;100.00;91907.00;2083766;28;20021;-88
2023/04/13 02:59:05;;;;;;;6.47;1.38;;;;;;;1.12;100.00;91911.94;2094132;28;20019;-88
2023/04/13 03:00:12;;;;;;;3.55;1.23;;;;;;;1.15;100.00;91906.66;2085506;28;20029;-90
2023/04/13 03:01:15;;;;;;;12.20;2.85;;;;;;;1.16;100.00;91916.03;2077730;28;20029;-89
2023/04/13 03:02:18;;;;;;;7.00;1.33;;;;;;;1.12;100.00;91912.69;2096126;28;20013;-86
2023/04/13 03:03:20;;;;;;;2.15;1.00;;;;;;;1.13;100.00;91913.41;2083505;28;20408;-89
2023/04/13 03:04:24;;;;;;;4.88;1.42;;;;;;;1.05;100.00;91912.72;2084909;28;20063;-89
2023/04/13 03:05:27;;;;;;;9.18;1.30;;;;;;;1.05;100.00;91910.06;2081622;28;20088;-88
2023/04/13 03:06:30;;;;;;;7.75;1.00;;;;;;;1.15;100.00;91919.81;2080344;28;20025;-88
2023/04/13 03:07:33;;;;;;;3.75;1.30;;;;;;;1.25;100.00;91916.34;2077491;28;20090;-88
2023/04/13 03:08:35;;;;;;;5.20;1.10;;;;;;;1.29;100.00;91924.22;2089152;28;20037;-90
2023/04/13 03:09:37;;;;;;;5.60;1.27;;;;;;;1.25;100.00;91921.63;2080932;28;20048;-89
2023/04/13 03:10:42;;;;;;;7.90;1.60;;;;;;;1.32;100.00;91922.69;2080403;28;20116;-89
2023/04/13 03:11:43;;;;;;;4.78;1.08;;;;;;;1.44;100.00;91922.97;2071092;28;20036;-90
2023/04/13 03:12:44;;;;;;;5.07;1.15;;;;;;;1.32;100.00;91927.97;2070430;28;20510;-89
2023/04/13 03:13:45;;;;;;;3.38;1.08;;;;;;;1.26;100.00;91915.22;2086575;28;20029;-88
2023/04/13 03:14:48;;;;;;;5.43;1.02;;;;;;;1.22;100.00;91922.38;2079949;28;20025;-88
2023/04/13 03:15:50;;;;;;;6.72;1.23;;;;;;;1.29;100.00;91921.59;2090587;28;20032;-88
2023/04/13 03:16:53;;;;;;;6.57;1.30;;;;;;;1.18;100.00;91920.91;2082182;28;20028;-89
2023/04/13 03:17:54;;;;;;;7.40;1.17;;;;;;;1.20;100.00;91926.53;2074401;28;20034;-88
2023/04/13 03:18:56;;;;;;;4.82;1.20;;;;;;;1.18;100.00;91924.28;2074190;28;20029;-89
2023/04/13 03:19:58;;;;;;;6.25;1.38;;;;;;;1.17;100.00;91920.16;2081940;28;20029;-89
2023/04/13 03:21:04;;;;;;;6.65;1.08;;;;;;;1.28;100.00;91928.00;2078229;28;20792;-87
2023/04/13 03:22:08;;;;;;;7.88;1.23;;;;;;;1.17;100.00;91928.06;2090997;28;20037;-88
2023/04/13 03:23:10;;;;;;;8.05;1.50;;;;;;;1.18;100.00;91926.16;2082667;28;20045;-88
2023/04/13 03:24:11;;;;;;;2.85;1.08;;;;;;;1.09;100.00;91925.84;2074353;28;20033;-89
2023/04/13 03:25:14;;;;;;;8.27;1.15;;;;;;;1.08;100.00;91914.56;2073588;28;20057;-88
2023/04/13 03:26:17;;;;;;;4.65;1.00;;;;;;;1.03;100.00;91909.72;2074505;28;20120;-89
2023/04/13 03:27:21;;;;;;;7.30;1.30;;;;;;;0.99;100.00;91919.53;2088385;28;20120;-90
2023/04/13 03:28:25;;;;;;;4.60;1.05;;;;;;;1.13;100.00;91914.16;2066843;28;20072;-89
2023/04/13 03:29:26;;;;;;;5.50;1.00;;;;;;;1.10;100.00;91919.44;2082000;28;20034;-88
2023/04/13 03:30:28;;;;;;;9.38;1.98;;;;;;;1.07;100.00;91926.25;2074297;28;20490;-89
2023/04/13 03:31:31;;;;;;;3.35;0.80;;;;;;;1.17;100.00;91916.78;2074330;28;20553;-89
2023/04/13 03:32:32;;;;;;;6.80;1.50;;;;;;;1.06;100.00;91916.13;2082586;28;20087;-89
2023/04/13 03:33:33;;;;;;;4.38;0.93;;;;;;;0.93;100.00;91921.06;2081867;28;20025;-88
2023/04/13 03:34:35;;;;;;;6.18;1.00;;;;;;;0.82;100.00;91915.09;2082049;28;20478;-87
2023/04/13 03:35:37;;;;;;;8.70;1.20;;;;;;;0.75;100.00;91921.91;2082181;28;20075;-90
2023/04/13 03:36:38;;;;;;;5.65;1.00;;;;;;;0.80;100.00;91922.63;2073131;28;20525;-88
2023/04/13 03:37:41;;;;;;;3.65;0.90;;;;;;;0.73;100.00;91923.41;2079498;28;20051;-87
2023/04/13 03:38:43;;;;;;;5.65;1.17;;;;;;;0.74;100.00;91924.91;2078710;28;20017;-87
2023/04/13 03:39:47;;;;;;;5.93;1.10;;;;;;;0.70;100.00;91914.41;2073865;28;20412;-90
2023/04/13 03:40:49;;;;;;;10.80;1.38;;;;;;;0.70;100.00;91918.91;2076650;28;20080;-89
2023/04/13 03:41:50;;;;;;;6.97;1.80;;;;;;;0.74;100.00;91911.75;2082340;28;20022;-88
2023/04/13 03:42:52;;;;;;;5.78;1.10;;;;;;;0.67;100.00;91917.06;2088691;28;20029;-89
2023/04/13 03:43:54;;;;;;;6.38;1.35;;;;;;;0.73;100.00;91905.75;2082344;28;20044;-89
2023/04/13 03:44:55;;;;;;;2.97;1.10;;;;;;;0.66;100.00;91908.41;2089302;28;20128;-88
2023/04/13 03:45:56;;;;;;;4.40;1.20;;;;;;;0.64;100.00;91913.28;2073853;28;20034;-88
2023/04/13 03:47:00;;;;;;;5.30;0.90;;;;;;;0.63;100.00;91913.69;2082173;28;20389;-88
2023/04/13 03:48:01;;;;;;;7.15;1.50;;;;;;;0.67;100.00;91909.91;2082604;28;20029;-88
2023/04/13 03:49:07;;;;;;;7.75;1.25;;;;;;;0.79;100.00;91916.63;2086247;28;20025;-89
2023/04/13 03:50:09;;;;;;;6.50;1.25;;;;;;;0.90;100.00;91912.06;2082700;28;20029;-88
2023/04/13 03:51:13;;;;;;;6.47;1.00;;;;;;;0.79;100.00;91914.00;2081948;28;20440;-89
2023/04/13 03:52:15;;;;;;;5.55;1.15;;;;;;;0.75;100.00;91916.63;2081940;28;20124;-87
2023/04/13 03:53:16;;;;;;;4.30;0.90;;;;;;;0.67;100.00;91903.91;2070230;28;20034;-87
2023/04/13 03:54:20;;;;;;;7.80;1.23;;;;;;;0.62;100.00;91917.47;2090380;28;20116;-89
2023/04/13 03:55:21;;;;;;;7.18;1.10;;;;;;;0.56;100.00;91914.44;2082617;28;20090;-89
2023/04/13 03:56:23;;;;;;;8.27;1.15;;;;;;;0.56;100.00;91917.09;2074417;28;20036;-88
2023/04/13 03:57:26;;;;;;;10.85;1.48;;;;;;;0.54;100.00;91913.34;2083174;28;20040;-87
2023/04/13 03:58:27;;;;;;;10.90;1.30;;;;;;;0.66;100.00;91918.94;2075084;28;20067;-88
2023/04/13 03:59:28;;;;;;;7.63;1.10;;;;;;;0.58;100.00;91911.47;2081993;28;20021;-89
2023/04/13 04:00:29;;;;;;;4.90;1.00;;;;;;;0.53;100.00;91915.25;2073806;28;20028;-88
2023/04/13 04:01:31;;;;;;;4.97;1.08;;;;;;;0.44;100.00;91909.63;2069744;28;20474;-87
2023/04/13 04:02:32;;;;;;;5.80;1.30;;;;;;;0.47;100.00;91912.22;2081887;28;20037;-89
2023/04/13 04:03:33;;;;;;;5.63;1.02;;;;;;;0.46;100.00;91912.63;2075929;28;20093;-87
2023/04/13 04:04:34;;;;;;;3.90;1.00;;;;;;;0.46;100.00;91905.47;2071189;28;20026;-88
2023/04/13 04:05:39;;;;;;;7.90;1.10;;;;;;;0.57;100.00;91915.19;2085250;28;20038;-88
2023/04/13 04:06:40;;;;;;;4.03;1.70;;;;;;;0.48;100.00;91910.34;2093843;28;20024;-87
2023/04/13 04:07:41;;;;;;;7.88;1.30;;;;;;;0.47;100.00;91908.84;2084858;28;20036;-86
2023/04/13 04:08:44;;;;;;;6.28;1.42;;;;;;;0.46;100.00;91910.00;2073767;28;20104;-89
2023/04/13 04:09:45;;;;;;;7.40;1.50;;;;;;;0.43;100.00;91908.13;2090245;28;20139;-88
2023/04/13 04:10:46;;;;;;;7.15;2.28;;;;;;;0.37;100.00;91912.28;2086159;28;20026;-89
2023/04/13 04:11:49;;;;;;;4.28;1.02;;;;;;;0.38;100.00;91908.53;2085724;28;20116;-88
2023/04/13 04:12:50;;;;;;;4.80;1.13;;;;;;;0.47;100.00;91903.59;2090137;28;20567;-85
2023/04/13 04:13:53;;;;;;;8.35;2.80;;;;;;;0.39;100.00;91910.00;2073928;28;20444;-89
2023/04/13 04:14:59;;;;;;;7.00;1.95;;;;;;;0.35;100.00;91909.28;2086080;28;20463;-87
2023/04/13 04:16:02;;;;;;;7.65;2.47;;;;;;;0.45;100.00;91906.63;2090738;28;20021;-86
2023/04/13 04:17:03;;;;;;;11.45;2.83;;;;;;;0.46;100.00;91918.63;2089690;28;20025;-87
2023/04/13 04:18:05;;;;;;;10.00;1.80;;;;;;;0.57;100.00;91907.31;2094043;28;20500;-87
2023/04/13 04:19:07;;;;;;;6.05;1.85;;;;;;;0.58;100.00;91916.72;2094083;28;20393;-87
2023/04/13 04:20:09;;;;;;;4.30;1.33;;;;;;;0.48;100.00;91918.25;2095216;28;20086;-86
2023/04/13 04:21:11;;;;;;;6.82;2.85;;;;;;;0.39;100.00;91913.38;2081047;28;20018;-86
2023/04/13 04:22:13;;;;;;;9.82;2.00;;;;;;;0.55;100.00;91918.22;2087493;28;20031;-86
2023/04/13 04:23:15;;;;;;;9.43;2.10;;;;;;;0.51;100.00;91920.13;2078764;28;20037;-87
2023/04/13 04:24:21;;;;;;;3.90;1.40;;;;;;;0.43;100.00;91919.38;2085817;28;20480;-88
2023/04/13 04:25:26;;;;;;;5.82;1.50;;;;;;;0.43;100.00;91923.88;2093526;28;20032;-88
2023/04/13 04:26:28;;;;;;;4.68;1.30;;;;;;;0.47;100.00;91922.75;2076933;28;20040;-87
2023/04/13 04:27:37;;;;;;;9.43;1.38;;;;;;;0.49;100.00;91925.00;2084850;28;20406;-86
2023/04/13 04:28:39;;;;;;;7.22;1.30;;;;;;;0.42;100.00;91919.78;2084350;28;20029;-87
2023/04/13 04:29:40;;;;;;;5.13;1.30;;;;;;;0.37;100.00;91925.41;2074818;28;20029;-86
2023/04/13 04:30:44;;;;;;;7.32;1.15;;;;;;;0.37;100.00;91926.16;2074655;28;20061;-88
2023/04/13 04:31:45;;;;;;;7.35;1.27;;;;;;;0.38;100.00;91932.91;2081863;28;20088;-87
2023/04/13 04:32:47;;;;;;;5.72;1.40;;;;;;;0.42;100.00;91931.03;2082836;28;20025;-89
2023/04/13 04:33:50;;;;;;;5.45;0.98;;;;;;;0.43;100.00;91937.03;2082307;28;20021;-87
2023/04/13 04:34:51;;;;;;;7.38;1.02;;;;;;;0.41;100.00;91931.41;2076063;28;20045;-86
2023/04/13 04:35:52;;;;;;;4.68;1.50;;;;;;;0.47;100.00;91928.00;2082452;28;20496;-88
2023/04/13 04:36:55;;;;;;;12.23;1.60;;;;;;;0.46;100.00;91920.50;2091007;28;20033;-87
2023/04/13 04:37:56;;;;;;;6.28;1.20;;;;;;;0.51;100.00;91925.38;2090408;28;20025;-87
2023/04/13 04:39:00;;;;;;;5.18;1.58;;;;;;;0.53;100.00;91928.38;2081890;28;20697;-86
2023/04/13 04:40:14;;;;;;;4.82;1.70;;;;;;;0.56;100.00;91926.84;2081434;28;20492;-86
2023/04/13 04:41:19;;;;;;;4.78;1.10;;;;;;;0.55;100.00;91922.72;2081088;28;20025;-88
2023/04/13 04:42:20;;;;;;;7.40;1.50;;;;;;;0.56;100.00;91917.09;2080518;28;20038;-86
2023/04/13 04:43:22;;;;;;;5.13;1.30;;;;;;;0.58;100.00;91920.09;2075643;28;20060;-87
2023/04/13 04:44:29;;;;;;;9.18;1.83;;;;;;;0.63;100.00;91911.81;2086436;28;20535;-87
2023/04/13 04:45:31;;;;;;;3.42;1.20;;;;;;;0.56;100.00;91911.06;2079572;28;20099;-87
2023/04/13 04:46:33;;;;;;;5.25;1.02;;;;;;;0.63;100.00;91903.91;2082220;28;20024;-87
2023/04/13 04:47:42;;;;;;;6.05;1.10;;;;;;;0.75;100.00;91902.75;2069843;28;20351;-87
2023/04/13 04:48:46;;;;;;;4.47;1.15;;;;;;;0.78;100.00;91898.59;2072830;28;20364;-88
2023/04/13 04:49:47;;;;;;;6.50;1.13;;;;;;;0.72;100.00;91903.50;2083915;28;20488;-86
2023/04/13 04:50:51;;;;;;;7.35;1.35;;;;;;;0.71;100.00;91904.66;2081985;28;20064;-86
2023/04/13 04:51:54;;;;;;;7.13;1.35;;;;;;;0.63;100.00;91913.69;2073222;28;20037;-88
2023/04/13 04:53:01;;;;;;;2.78;1.00;;;;;;;0.55;100.00;91912.97;2072086;28;20341;-88
2023/04/13 04:54:04;;;;;;;5.65;1.00;;;;;;;0.59;100.00;91915.59;2077512;28;20018;-86
2023/04/13 04:55:05;;;;;;;5.05;1.23;;;;;;;0.60;100.00;91919.69;2073621;28;20026;-86
2023/04/13 04:56:07;;;;;;;6.45;1.38;;;;;;;0.63;100.00;91917.06;2072883;28;20030;-85
2023/04/13 04:57:09;;;;;;;6.68;1.50;;;;;;;0.58;100.00;91924.59;2071118;28;20168;-86
2023/04/13 04:58:10;;;;;;;4.82;1.13;;;;;;;0.56;100.00;91921.59;2074465;28;20022;-86
2023/04/13 04:59:11;;;;;;;11.43;2.47;;;;;;;0.50;100.00;91923.88;2074580;28;20057;-87
2023/04/13 05:00:14;;;;;;;7.25;1.00;;;;;;;0.46;100.00;91921.25;2079600;28;20116;-87
2023/04/13 05:01:16;;;;;;;7.70;1.15;;;;;;;0.41;100.00;91920.91;2082404;28;20081;-85
2023/04/13 05:02:17;;;;;;;6.78;1.40;;;;;;;0.37;100.00;91925.41;2078336;28;20030;-87
2023/04/13 05:03:19;;;;;;;6.25;1.33;;;;;;;0.34;100.00;91932.19;2082975;28;20032;-87
2023/04/13 05:04:21;;;;;;;9.23;1.88;;;;;;;0.37;100.00;91925.41;2088911;28;20024;-88